メインページ
METAR-TAF:

METAR-TAF

空港 :

ポートスーダン, スーダン

緯度: 19-26N, 経度: 037-14E, 海抜: 138m

現時点の気象観測

当レポートは3時間53分前の19:00(UTC)に作成
の風 10kt
気温 25°C
湿度 89%
気圧 1016 hPa
視程10km以上
高度3000ftの雲はほとんどない

METAR: HSPN 151900Z 09010KT 9999 FEW030 25/23 Q1016

時間: 01:53 (22:53 UTC)

予報

当レポートは5時間53分前の17:00(UTC)に作成
予報は15日の 18時(UTC)から 16日の 24時(UTC)まで有効
北/北東の風 10kt、最大20ktの突風を伴う
視程10km以上
高度3000ftの雲はほとんどない
高度13000ftの雲は散在している
15日の 20時(UTC)から 15日の 22時(UTC)まで徐々に
北西の風 10kt

TAF: HSPN 151700Z 1518/1624 02010G20KT 9999 FEW030 SCT130 BECMG 1520/1522 31010KT

4,000以上の空港の気象観測と天気予報(METAR報とTAF報)

利用可能な観測所は地図上に黄色い丸と赤い丸で示す。

丸の上にカーソルを重ねると観測所名を参照できる。

次にクリックすると気象観測と天気予報を参照できる。

マップの切り替え:黒色「×」印の緑ボタンをクリックして拡大、「-」印の緑ボタンをクリックして縮小、緑色の三角印をクリックして隣りの地図に切り替え


METAR-TAF: